Time;durP1;ratioP1;P1;durP2;ratioP2;P2;SDS_P1;SDS_P2;PMS_P1;PMS_P2;Temp;Humidity;BMP_temperature;BMP_pressure;BME280_temperature;BME280_humidity;BME280_pressure;Samples;Min_cycle;Max_cycle;Signal;HPM_P1;HPM_P2
2022/05/18 07:24:23;;;;;;;;;6.80;4.20;;;;;20.62;60.56;102023.84;5095980;27;45432;-89
2022/05/18 07:26:48;;;;;;;;;3.75;3.00;;;;;20.30;60.47;101954.81;5085374;27;45563;-88
2022/05/18 07:29:14;;;;;;;;;4.50;4.00;;;;;20.83;59.98;102012.06;5054737;27;45454;-89
2022/05/18 07:34:23;;;;;;;;;3.00;3.00;;;;;21.15;59.23;101995.78;5089764;27;45503;-91
2022/05/18 07:36:51;;;;;;;;;4.00;2.25;;;;;21.27;58.58;102000.03;5069595;27;45467;-88
2022/05/18 07:39:16;;;;;;;;;3.20;3.20;;;;;21.33;58.28;101973.47;5101741;27;45590;-88
2022/05/18 07:41:43;;;;;;;;;3.50;3.50;;;;;21.16;58.00;101919.25;5041252;27;45570;-88
2022/05/18 07:44:09;;;;;;;;;3.20;3.20;;;;;21.73;57.21;101999.38;5070706;27;45985;-88
2022/05/18 07:46:35;;;;;;;;;5.00;3.00;;;;;21.82;56.96;101992.25;5084822;27;45418;-89
2022/05/18 07:49:01;;;;;;;;;4.20;3.20;;;;;21.79;56.87;101953.88;5053828;27;45479;-90
2022/05/18 07:51:26;;;;;;;;;4.00;2.50;;;;;22.25;56.58;102017.97;5074617;27;45378;-90
2022/05/18 07:53:53;;;;;;;;;4.75;4.50;;;;;22.15;56.31;101972.06;5102917;27;45374;-89
2022/05/18 07:56:19;;;;;;;;;3.00;3.00;;;;;21.99;56.20;101932.19;5084368;27;45481;-90
2022/05/18 07:58:44;;;;;;;;;1.25;1.25;;;;;22.30;55.85;101956.19;5076944;27;45748;-90
2022/05/18 08:01:10;;;;;;;;;2.75;2.75;;;;;22.34;55.63;101949.50;5085632;27;45925;-90
2022/05/18 08:03:35;;;;;;;;;2.50;2.50;;;;;22.54;55.25;101962.88;5075393;27;45953;-90
2022/05/18 08:06:02;;;;;;;;;2.50;2.50;;;;;22.14;54.82;101887.47;5080557;27;45675;-90
2022/05/18 08:08:27;;;;;;;;;2.40;2.40;;;;;22.47;54.74;101921.22;5100105;27;45389;-90
2022/05/18 08:16:20;;;;;;;;;2.80;2.80;;;;;22.69;54.04;101906.38;5098395;27;45383;-90
2022/05/18 08:18:46;;;;;;;;;3.00;2.50;;;;;23.10;53.91;101961.00;5086686;27;45437;-89
2022/05/18 08:21:12;;;;;;;;;4.00;3.75;;;;;22.63;53.88;101869.97;5068770;27;46256;-90
2022/05/18 08:23:38;;;;;;;;;3.50;2.75;;;;;22.55;53.91;101851.00;5097106;27;45435;-90
2022/05/18 08:26:04;;;;;;;;;2.40;2.40;;;;;22.81;53.33;101882.66;5088184;27;45410;-90
2022/05/18 08:28:29;;;;;;;;;3.00;3.00;;;;;22.90;53.69;101885.44;5086646;27;45410;-89
2022/05/18 08:30:55;;;;;;;;;3.75;2.75;;;;;22.89;52.98;101865.63;5049740;27;45637;-90
2022/05/18 08:33:21;;;;;;;;;3.00;3.00;;;;;23.59;53.31;101989.47;5080372;27;48294;-90
2022/05/18 08:35:47;;;;;;;;;2.75;2.75;;;;;23.25;53.17;101913.44;5059030;28;45484;-91
2022/05/18 08:38:14;;;;;;;;;3.00;2.00;;;;;23.69;53.02;101976.69;5059068;28;45524;-91
2022/05/18 08:40:52;;;;;;;;;6.00;3.80;;;;;23.75;53.46;101960.78;5060300;28;45507;-90
2022/05/18 08:43:26;;;;;;;;;3.40;3.00;;;;;23.16;53.21;101868.34;5075858;28;46800;-91
2022/05/18 08:46:05;;;;;;;;;2.80;2.80;;;;;23.46;53.10;101900.50;5076449;28;45351;-91
2022/05/18 08:48:59;;;;;;;;;2.20;1.80;;;;;23.89;53.01;101954.75;5071858;28;45606;-89
2022/05/18 08:51:58;;;;;;;;;2.20;1.80;;;;;23.94;53.28;101957.81;5058730;28;45327;-90
2022/05/18 08:55:01;;;;;;;;;3.20;3.20;;;;;24.00;53.12;101944.63;5089614;27;47377;-90
2022/05/18 08:57:36;;;;;;;;;3.40;3.40;;;;;23.58;52.73;101872.16;5070060;28;45407;-93
2022/05/18 09:00:34;;;;;;;;;3.00;3.00;;;;;23.72;52.78;101900.47;5078919;27;45495;-92
2022/05/18 09:03:16;;;;;;;;;4.20;3.00;;;;;23.51;52.81;101849.44;5070104;28;45386;-90
2022/05/18 09:05:59;;;;;;;;;3.20;3.00;;;;;23.92;52.90;101900.22;5061651;28;46013;-90
2022/05/18 09:08:46;;;;;;;;;3.60;3.60;;;;;23.65;52.44;101850.69;5095455;27;45279;-89
2022/05/18 09:11:18;;;;;;;;;2.60;2.60;;;;;23.56;52.51;101830.84;5051419;28;45554;-90
2022/05/18 09:13:44;;;;;;;;;7.40;5.00;;;;;23.94;51.97;101881.94;5058099;28;45317;-91
2022/05/18 09:16:09;;;;;;;;;4.00;4.00;;;;;24.33;51.56;101938.47;5052967;28;48294;-90
2022/05/18 09:18:38;;;;;;;;;4.50;3.00;;;;;24.36;51.75;101936.28;5067209;27;45958;-91
2022/05/18 09:21:24;;;;;;;;;4.00;3.80;;;;;24.09;52.11;101884.03;5073014;28;46922;-91
2022/05/18 09:23:49;;;;;;;;;5.00;4.80;;;;;24.46;52.00;101932.56;5032161;28;45498;-90
2022/05/18 09:26:34;;;;;;;;;4.00;3.00;;;;;24.40;51.91;101912.38;5061779;28;45434;-94
2022/05/18 09:29:21;;;;;;;;;3.40;3.40;;;;;24.12;52.14;101872.84;5059412;27;45379;-90
2022/05/18 09:31:49;;;;;;;;;7.00;5.40;;;;;24.56;52.19;101919.69;5046502;28;45487;-89
2022/05/18 09:34:36;;;;;;;;;4.00;3.40;;;;;24.59;52.00;101913.94;5063423;28;45494;-89
2022/05/18 09:37:34;;;;;;;;;4.00;4.00;;;;;23.96;52.21;101818.59;5069319;28;45521;-89
2022/05/18 09:40:32;;;;;;;;;5.60;5.00;;;;;24.25;52.28;101849.81;5051086;27;45463;-92
2022/05/18 09:42:58;;;;;;;;;3.60;3.60;;;;;24.72;51.76;101909.88;5084160;27;45659;-91
2022/05/18 09:45:25;;;;;;;;;6.00;5.50;;;;;24.36;51.66;101844.09;5081041;27;45435;-91
2022/05/18 09:48:36;;;;;;;;;4.80;2.20;;;;;24.76;51.86;101900.38;5066597;28;46493;-91
2022/05/18 09:51:01;;;;;;;;;4.60;4.60;;;;;24.43;51.65;101846.13;5062785;27;47204;-89
2022/05/18 09:53:27;;;;;;;;;3.00;3.00;;;;;24.60;51.04;101858.66;5072781;28;45723;-90
2022/05/18 09:56:01;;;;;;;;;4.00;4.00;;;;;24.18;51.67;101789.16;5041160;28;45424;-92
2022/05/18 09:58:37;;;;;;;;;5.00;5.00;;;;;24.34;51.93;101805.44;5058115;28;47520;-91
2022/05/18 10:07:40;;;;;;;;;5.80;4.60;;;;;24.98;51.57;101881.69;5104484;27;44843;-95
2022/05/18 11:19:31;;;;;;;;;4.40;4.40;;;;;25.77;50.65;101792.34;5033503;28;45506;-96
2022/05/18 12:04:07;;;;;;;;;;;;;;;;;;;;;
2022/05/18 12:07:29;;;;;;;;;4.80;4.80;;;;;26.25;50.16;101730.63;5021527;28;68676;-94
2022/05/18 12:14:17;;;;;;;;;4.60;4.00;;;;;26.31;49.98;101710.84;4996355;28;45460;-96
2022/05/18 12:17:06;;;;;;;;;2.80;2.80;;;;;26.34;49.74;101705.03;4966967;28;44883;-96
2022/05/18 12:19:38;;;;;;;;;6.40;5.40;;;;;26.38;49.60;101704.66;4992518;28;44951;-96
2022/05/18 12:22:22;;;;;;;;;3.00;3.00;;;;;26.16;49.92;101666.50;4982155;28;46949;-96
2022/05/18 12:25:26;;;;;;;;;5.20;3.00;;;;;25.91;49.77;101616.75;4950559;28;45464;-96
2022/05/18 12:27:59;;;;;;;;;3.20;3.20;;;;;26.18;49.33;101645.38;4978561;28;45142;-96
2022/05/18 12:30:36;;;;;;;;;3.00;3.00;;;;;26.29;49.13;101666.69;4971659;28;45725;-96
2022/05/18 12:33:07;;;;;;;;;3.00;3.00;;;;;26.49;49.29;101690.63;4938091;28;46839;-96
2022/05/18 12:35:46;;;;;;;;;3.40;3.40;;;;;26.51;49.14;101688.56;4962900;28;45545;-96
2022/05/18 12:38:47;;;;;;;;;3.00;3.00;;;;;26.13;48.89;101622.31;4965151;28;45405;-96
2022/05/18 12:41:30;;;;;;;;;2.20;2.20;;;;;26.18;48.99;101634.50;4967714;28;45637;-95
2022/05/18 12:44:43;;;;;;;;;2.20;1.80;;;;;26.58;49.22;101688.69;4950139;28;46919;-95
2022/05/18 12:47:47;;;;;;;;;;;;;;;;;;;;;
2022/05/18 12:51:18;;;;;;;;;;;;;;;;;;;;;
2022/05/18 12:54:25;;;;;;;;;3.20;3.20;;;;;26.67;48.63;101678.53;4883821;29;69365;-96
2022/05/18 12:57:33;;;;;;;;;;;;;;;;;;;;;
2022/05/18 13:00:18;;;;;;;;;3.40;3.40;;;;;26.40;48.14;101615.56;4900283;29;45439;-96
2022/05/18 13:03:39;;;;;;;;;2.80;2.80;;;;;26.45;48.26;101604.97;4870611;28;45433;-96
2022/05/18 13:06:31;;;;;;;;;;;;;;;;;;;;;
2022/05/18 13:09:04;;;;;;;;;1.80;1.20;;;;;26.21;48.29;101566.16;4869399;29;74925;-96
2022/05/18 13:12:17;;;;;;;;;3.60;3.40;;;;;26.79;48.66;101641.63;4858757;29;45291;-96
2022/05/18 13:15:04;;;;;;;;;2.40;2.00;;;;;26.82;48.46;101645.88;4880544;29;45445;-96
2022/05/18 13:18:00;;;;;;;;;3.00;2.00;;;;;26.41;48.03;101573.75;4870079;29;45339;-96
2022/05/18 13:20:57;;;;;;;;;5.40;2.00;;;;;26.87;48.76;101634.41;4886442;29;47345;-96
2022/05/18 13:24:00;;;;;;;;;2.20;2.20;;;;;26.28;48.09;101526.31;4907725;28;45517;-96
2022/05/18 13:26:52;;;;;;;;;2.60;2.60;;;;;26.70;48.22;101582.06;4900613;28;45288;-96
2022/05/18 13:29:46;;;;;;;;;3.00;3.00;;;;;26.31;48.12;101515.03;4933546;28;47289;-96
2022/05/18 13:32:19;;;;;;;;;2.00;1.20;;;;;26.56;48.07;101550.09;5023061;28;47570;-96
2022/05/18 13:35:07;;;;;;;;;2.00;2.00;;;;;27.03;47.76;101616.13;4988386;28;44932;-96
2022/05/18 13:37:44;;;;;;;;;3.40;3.20;;;;;26.62;47.48;101536.78;5001729;28;45607;-96
2022/05/18 13:40:10;;;;;;;;;2.80;2.80;;;;;26.40;47.21;101498.63;4990760;28;45538;-96
2022/05/18 13:42:35;;;;;;;;;2.00;2.00;;;;;26.66;47.18;101532.63;5006008;28;47093;-96
2022/05/18 13:45:02;;;;;;;;;4.50;3.00;;;;;26.43;47.81;101481.91;5294799;23;45616;-96
2022/05/18 13:50:46;;;;;;;;;;;;;;;;;;;;;
2022/05/18 13:57:56;;;;;;;;;3.00;1.00;;;;;26.52;47.75;101467.22;4900836;28;44884;-96
2022/05/18 14:00:31;;;;;;;;;2.00;2.00;;;;;26.68;48.03;101465.25;5015028;23;46974;-96
2022/05/18 14:03:18;;;;;;;;;3.00;3.00;;;;;26.85;47.70;101493.06;5012681;28;45577;-96
2022/05/18 14:17:04;;;;;;;;;3.60;3.40;;;;;26.76;47.44;101462.44;5453010;22;45458;-96
2022/05/18 14:19:53;;;;;;;;;3.00;3.00;;;;;26.78;47.69;101454.06;4939400;28;45620;-96
2022/05/18 14:22:26;;;;;;;;;2.60;2.60;;;;;26.75;47.80;101444.41;4941222;28;45530;-96
2022/05/18 14:25:15;;;;;;;;;2.20;2.00;;;;;27.07;47.38;101489.50;4939171;28;45176;-96
2022/05/18 14:27:43;;;;;;;;;2.20;2.00;;;;;27.53;47.50;101555.47;4960163;28;45580;-96
2022/05/18 14:30:42;;;;;;;;;3.00;2.60;;;;;27.55;47.49;101556.09;4933151;28;45428;-96
2022/05/18 14:33:32;;;;;;;;;3.00;3.00;;;;;27.57;47.86;101548.56;4854821;29;45288;-96
2022/05/18 14:36:34;;;;;;;;;3.60;2.40;;;;;27.00;47.53;101452.16;4879850;29;44892;-96
2022/05/18 14:39:24;;;;;;;;;3.60;3.60;;;;;27.02;47.26;101446.53;4896910;23;45660;-95
2022/05/18 14:44:49;;;;;;;;;3.00;2.60;;;;;27.68;47.12;101541.75;4975093;28;44832;-96
2022/05/18 14:47:41;;;;;;;;;2.60;2.60;;;;;26.97;47.33;101425.31;4975998;28;45105;-96
2022/05/18 14:50:21;;;;;;;;;2.00;2.00;;;;;27.32;47.31;101472.75;4953738;28;46638;-96
2022/05/18 14:53:13;;;;;;;;;3.40;3.00;;;;;27.50;47.09;101504.94;4912207;28;44678;-96
2022/05/18 14:56:03;;;;;;;;;3.00;3.00;;;;;27.77;46.97;101531.50;4928008;28;44853;-96
2022/05/18 14:58:48;;;;;;;;;5.80;5.60;;;;;27.36;47.16;101470.47;4917513;28;44804;-96
2022/05/18 15:01:42;;;;;;;;;3.00;3.00;;;;;27.59;46.99;101494.75;4929101;28;47381;-96
2022/05/18 15:04:28;;;;;;;;;;;;;;;;;;;;;
2022/05/18 15:08:07;;;;;;;;;3.60;3.60;;;;;27.34;46.56;101440.69;4962171;28;68478;-96
2022/05/18 15:10:06;;;;;;;;;3.60;3.60;;;;;27.47;46.42;101450.88;4942386;28;44834;-96
2022/05/18 15:12:36;;;;;;;;;3.00;3.00;;;;;27.91;46.89;101509.84;4923105;28;46440;-96
2022/05/18 15:15:10;;;;;;;;;3.40;3.40;;;;;27.94;46.58;101514.91;4913142;28;45477;-95
2022/05/18 15:17:59;;;;;;;;;2.00;2.00;;;;;27.96;46.72;101510.06;4938513;28;45433;-96
2022/05/18 15:20:59;;;;;;;;;5.40;3.40;;;;;27.99;46.62;101506.94;4930152;28;45513;-96
2022/05/18 15:23:48;;;;;;;;;4.00;3.00;;;;;27.26;46.37;101389.13;4940577;28;45670;-96
2022/05/18 15:26:20;;;;;;;;;4.00;3.80;;;;;27.58;46.24;101429.53;4938873;28;44854;-96
2022/05/18 15:28:58;;;;;;;;;3.00;3.00;;;;;28.05;46.16;101500.69;4929980;28;45286;-96
2022/05/18 15:31:50;;;;;;;;;5.20;4.60;;;;;27.55;46.69;101430.78;4924599;28;45423;-96
2022/05/18 15:34:48;;;;;;;;;3.00;3.00;;;;;28.12;46.26;101516.22;4928832;28;47576;-96
2022/05/18 15:39:51;;;;;;;;;1.80;1.80;;;;;27.58;45.34;101413.19;5753690;23;46514;-96
2022/05/18 15:42:18;;;;;;;;;2.20;2.20;;;;;27.50;45.92;101390.53;4925346;28;44902;-92
2022/05/18 15:44:44;;;;;;;;;2.40;2.40;;;;;27.83;45.72;101434.50;4908524;28;46995;-91
2022/05/18 15:47:13;;;;;;;;;5.25;4.00;;;;;27.74;45.36;101417.47;4918575;28;45499;-91
2022/05/18 15:49:41;;;;;;;;;3.00;3.00;;;;;28.11;45.06;101477.22;4928605;28;45686;-91
2022/05/18 15:52:11;;;;;;;;;6.00;5.00;;;;;27.57;45.26;101390.53;4923542;28;46501;-92
2022/05/18 15:54:57;;;;;;;;;3.40;3.40;;;;;27.83;45.30;101427.19;4920874;28;46311;-91
2022/05/18 15:57:33;;;;;;;;;3.80;2.80;;;;;27.70;44.69;101394.38;4913923;28;45550;-91
2022/05/18 16:00:01;;;;;;;;;4.00;4.00;;;;;27.70;44.31;101397.13;4921604;28;45728;-92
2022/05/18 16:02:29;;;;;;;;;4.60;4.00;;;;;27.72;44.20;101384.13;4911616;28;45375;-92
2022/05/18 16:04:55;;;;;;;;;5.00;5.00;;;;;27.87;44.02;101403.09;4912838;28;47350;-93
2022/05/18 16:07:20;;;;;;;;;4.50;4.50;;;;;28.42;44.02;101494.09;4920552;28;45684;-93
2022/05/18 16:09:46;;;;;;;;;5.00;3.00;;;;;28.04;44.10;101435.44;4911057;28;45560;-92
2022/05/18 16:12:11;;;;;;;;;4.50;4.50;;;;;28.04;44.11;101427.25;4920930;28;47315;-93
2022/05/18 16:14:39;;;;;;;;;5.00;5.00;;;;;27.86;43.76;101399.50;4904232;28;47783;-92
2022/05/18 16:17:05;;;;;;;;;0.40;0.20;;;;;27.83;44.33;101389.03;4909671;28;45669;-91
2022/05/18 16:19:30;;;;;;;;;4.00;4.00;;;;;28.41;44.13;101479.63;4942366;23;45517;-92
2022/05/18 16:21:58;;;;;;;;;6.75;5.00;;;;;28.41;44.11;101470.59;4943263;28;45658;-92
2022/05/18 16:24:25;;;;;;;;;4.20;4.20;;;;;28.01;44.13;101401.25;4959419;28;46255;-92
2022/05/18 16:26:50;;;;;;;;;4.80;4.80;;;;;27.86;43.92;101374.97;4969475;28;45433;-91
2022/05/18 16:29:32;;;;;;;;;4.00;4.00;;;;;28.02;45.10;101410.28;4948194;28;45804;-92
2022/05/18 16:31:59;;;;;;;;;3.60;3.60;;;;;28.03;44.16;101396.44;4942421;28;45583;-91
2022/05/18 16:34:25;;;;;;;;;4.20;3.80;;;;;28.40;43.81;101463.47;4952910;28;46898;-92
2022/05/18 16:36:51;;;;;;;;;4.25;4.00;;;;;28.10;43.88;101405.47;4946461;28;45427;-92
2022/05/18 16:39:16;;;;;;;;;4.00;3.00;;;;;28.43;43.68;101452.13;4962962;28;45481;-92
2022/05/18 16:41:42;;;;;;;;;4.00;3.00;;;;;28.57;43.47;101472.16;4957043;28;45468;-91
2022/05/18 16:44:22;;;;;;;;;4.00;4.00;;;;;28.60;44.12;101470.88;4966251;28;47418;-92
2022/05/18 16:46:48;;;;;;;;;4.00;3.80;;;;;28.75;43.39;101487.06;4963370;28;47715;-91
2022/05/18 16:49:13;;;;;;;;;3.80;3.80;;;;;28.20;43.37;101399.63;4959877;28;45526;-91
2022/05/18 16:51:42;;;;;;;;;3.25;3.25;;;;;28.29;43.83;101413.06;4956747;28;45733;-91
2022/05/18 16:54:38;;;;;;;;;4.00;4.00;;;;;28.81;44.01;101482.66;4958328;28;47339;-93
2022/05/18 16:57:04;;;;;;;;;5.00;4.00;;;;;28.43;43.47;101430.28;4974594;28;47425;-91
2022/05/18 16:59:31;;;;;;;;;4.40;4.40;;;;;28.53;43.48;101444.44;4943051;28;45656;-91
2022/05/18 17:02:10;;;;;;;;;3.00;3.00;;;;;28.32;43.32;101401.75;4963895;28;45763;-93
2022/05/18 17:25:40;;;;;;;;;;;;;;;;;;;;;
2022/05/18 17:32:06;;;;;;;;;;;;;;;;;;;;;
2022/05/18 17:38:32;;;;;;;;;;;;;;;;;;;;;
2022/05/18 17:41:00;;;;;;;;;3.80;3.60;;;;;28.51;42.53;101389.22;4792055;29;70519;-90
2022/05/18 17:43:33;;;;;;;;;5.20;4.00;;;;;28.55;43.04;101395.09;4773252;29;47291;-92
2022/05/18 17:46:08;;;;;;;;;3.20;3.00;;;;;28.50;42.82;101386.69;4791955;29;45394;-92
2022/05/18 17:48:48;;;;;;;;;4.00;4.00;;;;;28.87;43.06;101433.53;4781106;29;45461;-92
2022/05/18 17:51:13;;;;;;;;;2.60;2.60;;;;;28.41;42.85;101356.00;4768524;29;45536;-91
2022/05/18 17:53:42;;;;;;;;;4.00;4.00;;;;;28.96;42.39;101447.81;4773914;29;45707;-91
2022/05/18 17:56:18;;;;;;;;;5.00;3.40;;;;;28.76;43.46;101413.16;4762055;29;45538;-92
2022/05/18 17:58:46;;;;;;;;;2.00;2.00;;;;;28.79;42.76;101416.53;4760274;29;45944;-92
2022/05/18 18:01:22;;;;;;;;;;;;;;;;;;;;;
2022/05/18 18:03:50;;;;;;;;;4.20;4.20;;;;;29.20;42.56;101482.94;4771124;29;73959;-91
2022/05/18 18:06:25;;;;;;;;;2.80;2.80;;;;;28.76;42.73;101413.16;4768507;29;45592;-93
2022/05/18 18:11:54;;;;;;;;;;;;;;;;;;;;;
2022/05/18 18:14:40;;;;;;;;;;;;;;;;;;;;;
2022/05/18 18:17:49;;;;;;;;;4.20;4.20;;;;;28.57;43.41;101379.38;4883316;28;73199;-92
2022/05/18 18:20:30;;;;;;;;;4.20;3.20;;;;;29.11;43.11;101463.19;4876281;28;45443;-92
2022/05/18 18:26:31;;;;;;;;;3.00;3.00;;;;;28.67;42.87;101398.03;4918636;28;45553;-92
2022/05/18 18:29:05;;;;;;;;;4.00;2.60;;;;;29.23;42.67;101482.47;4897208;28;45546;-93
2022/05/18 18:31:52;;;;;;;;;3.00;3.00;;;;;29.01;43.03;101446.34;4882767;28;45552;-92
2022/05/18 18:37:44;;;;;;;;;2.20;2.20;;;;;28.63;42.90;101385.84;4924889;28;46570;-91
2022/05/18 18:40:09;;;;;;;;;2.80;2.80;;;;;28.95;42.63;101437.94;4888301;28;45569;-89
2022/05/18 18:42:42;;;;;;;;;3.25;3.25;;;;;29.05;43.12;101458.53;4910019;28;45952;-91
2022/05/18 18:49:17;;;;;;;;;4.40;3.40;;;;;29.22;43.14;101482.72;4927382;28;45778;-92
2022/05/18 18:54:49;;;;;;;;;5.00;5.00;;;;;28.89;42.76;101435.22;4900068;28;45575;-91
2022/05/18 18:57:37;;;;;;;;;;;;;;;;;;;;;
2022/05/18 19:00:24;;;;;;;;;4.00;4.00;;;;;28.57;42.95;101384.84;4910488;28;75822;-92
2022/05/18 19:03:11;;;;;;;;;3.40;3.40;;;;;28.66;43.19;101407.25;4881921;28;47294;-92
2022/05/18 19:05:47;;;;;;;;;3.60;3.60;;;;;28.70;42.91;101426.81;4906769;28;47003;-91
2022/05/18 19:08:13;;;;;;;;;4.40;3.80;;;;;28.76;42.85;101432.28;4894836;28;45789;-91
2022/05/18 19:11:25;;;;;;;;;5.00;4.80;;;;;28.81;43.35;101448.00;4883393;28;46105;-91
2022/05/18 19:13:52;;;;;;;;;5.00;5.00;;;;;28.87;42.87;101451.78;4911255;28;45703;-91
2022/05/18 19:16:24;;;;;;;;;3.40;3.40;;;;;28.67;43.07;101425.34;4878471;28;45520;-92
2022/05/18 19:18:52;;;;;;;;;5.00;5.00;;;;;29.30;42.98;101526.19;4881237;28;45746;-91
2022/05/18 19:21:23;;;;;;;;;4.40;4.20;;;;;28.63;42.99;101424.06;4876929;28;46906;-91
2022/05/18 19:23:50;;;;;;;;;5.00;5.00;;;;;28.58;43.05;101421.13;4891809;28;45558;-91
2022/05/18 19:26:18;;;;;;;;;4.60;4.40;;;;;28.93;43.07;101478.28;4864046;28;45715;-92
2022/05/18 19:28:43;;;;;;;;;6.00;6.00;;;;;29.29;43.63;101558.13;4863021;28;45967;-91
2022/05/18 19:31:22;;;;;;;;;;;;;;;;;;;;;
2022/05/18 19:34:11;;;;;;;;;8.60;6.40;;;;;28.80;42.81;101470.06;4879371;28;72784;-91
2022/05/18 19:36:42;;;;;;;;;6.00;6.00;;;;;28.99;42.47;101520.28;4879282;28;45781;-91
2022/05/18 19:39:10;;;;;;;;;9.00;8.00;;;;;29.12;42.10;101546.78;4861194;28;45495;-91
2022/05/18 19:41:42;;;;;;;;;8.00;7.00;;;;;28.78;42.61;101496.72;4891466;28;45469;-91
2022/05/18 19:44:19;;;;;;;;;7.80;7.80;;;;;28.87;43.10;101517.31;4874473;28;49144;-90
2022/05/18 19:46:45;;;;;;;;;5.80;5.80;;;;;28.90;42.75;101522.38;4900345;28;45427;-92
2022/05/18 19:52:27;;;;;;;;;;;;;;;;;;;;;
2022/05/18 19:55:17;;;;;;;;;5.40;5.40;;;;;28.59;42.81;101480.97;4901332;28;73051;-92
2022/05/18 19:58:44;;;;;;;;;8.80;5.60;;;;;28.50;43.10;101468.53;4882512;28;45939;-92
2022/05/18 20:02:11;;;;;;;;;6.60;6.00;;;;;28.67;43.34;101499.03;4878677;28;45369;-92
2022/05/18 20:05:32;;;;;;;;;;;;;;;;;;;;;
2022/05/18 20:11:45;;;;;;;;;7.00;7.00;;;;;28.94;42.59;101561.03;4862633;29;45589;-93
2022/05/18 20:14:36;;;;;;;;;5.00;5.00;;;;;28.81;42.64;101539.97;4863468;29;45502;-92
2022/05/18 20:17:58;;;;;;;;;4.00;4.00;;;;;29.11;43.04;101594.28;4806153;29;45623;-94
2022/05/18 20:20:31;;;;;;;;;5.20;5.20;;;;;28.57;42.31;101512.22;4798960;29;45523;-92
2022/05/18 20:32:20;;;;;;;;;5.00;5.00;;;;;28.61;43.07;101538.03;4934342;28;45709;-92
2022/05/18 20:34:58;;;;;;;;;;;;;;;;;;;;;
2022/05/18 20:37:24;;;;;;;;;4.80;4.80;;;;;28.44;43.94;101527.47;4921248;28;69394;-92
2022/05/18 20:39:49;;;;;;;;;3.00;3.00;;;;;28.46;43.23;101535.47;4898297;28;47463;-91
2022/05/18 20:42:24;;;;;;;;;4.75;4.75;;;;;28.68;42.54;101590.78;4931442;28;46251;-91
2022/05/18 20:44:54;;;;;;;;;5.00;4.00;;;;;28.71;43.23;101611.34;4911395;28;45506;-92
2022/05/18 20:47:22;;;;;;;;;5.60;4.40;;;;;28.74;41.11;101628.16;4917757;28;45950;-92
2022/05/18 20:49:52;;;;;;;;;6.80;5.80;;;;;28.81;41.86;101627.34;4919443;28;47014;-91
2022/05/18 20:52:35;;;;;;;;;7.20;5.00;;;;;28.71;42.64;101603.16;4933066;28;45546;-92
2022/05/18 20:55:23;;;;;;;;;5.20;5.00;;;;;28.76;42.18;101625.22;4906452;28;45639;-93
2022/05/18 21:01:19;;;;;;;;;4.60;3.80;;;;;28.92;41.26;101673.16;4925608;28;45983;-90
2022/05/18 21:03:50;;;;;;;;;5.50;5.50;;;;;28.42;41.62;101603.25;4920892;28;45348;-93
2022/05/18 21:06:34;;;;;;;;;4.80;4.80;;;;;28.53;42.02;101619.06;4903354;28;46162;-95
2022/05/18 21:13:27;;;;;;;;;7.60;5.40;;;;;29.02;41.85;101699.25;4855539;29;46330;-96
2022/05/18 21:27:49;;;;;;;;;7.00;6.60;;;;;28.94;42.20;101720.25;4783188;29;45491;-95
2022/05/18 21:34:13;;;;;;;;;10.40;7.40;;;;;28.92;42.50;101722.31;4657569;30;45647;-95
2022/05/18 21:44:44;;;;;;;;;6.00;6.00;;;;;28.23;43.81;101630.19;4633525;30;45592;-96
2022/05/18 21:48:09;;;;;;;;;5.60;4.40;;;;;28.84;43.67;101736.97;4599778;30;45377;-95
2022/05/18 21:51:42;;;;;;;;;;;;;;;;;;;;;
2022/05/18 21:54:56;;;;;;;;;5.20;4.60;;;;;28.38;44.63;101700.16;4611879;30;74171;-95
2022/05/18 21:58:50;;;;;;;;;;;;;;;;;;;;;
2022/05/18 22:08:37;;;;;;;;;6.00;6.00;;;;;28.68;44.84;101770.91;4733474;29;45640;-96
2022/05/18 23:19:02;;;;;;;;;;;;;;;;;;;;;
2022/05/18 23:22:36;;;;;;;;;;;;;;;;;;;;;
2022/05/18 23:58:34;;;;;;;;;;;;;;;;;;;;;
